sensor_id;sensor_type;location;lat;lon;timestamp;P1;durP1;ratioP1;P2;durP2;ratioP2
56824;SDS011;42705;50.326;18.772;2023-04-15T00:03:20;9.30;;;4.90;;
56824;SDS011;42705;50.326;18.772;2023-04-15T00:08:42;9.10;;;5.80;;
56824;SDS011;42705;50.326;18.772;2023-04-15T00:14:04;8.20;;;4.80;;
56824;SDS011;42705;50.326;18.772;2023-04-15T00:19:26;7.70;;;5.20;;
56824;SDS011;42705;50.326;18.772;2023-04-15T00:24:48;9.70;;;4.70;;
56824;SDS011;42705;50.326;18.772;2023-04-15T00:30:10;7.70;;;4.80;;
56824;SDS011;42705;50.326;18.772;2023-04-15T00:35:32;8.60;;;4.60;;
56824;SDS011;42705;50.326;18.772;2023-04-15T00:40:54;8.40;;;5.10;;
56824;SDS011;42705;50.326;18.772;2023-04-15T00:46:16;11.50;;;5.90;;
56824;SDS011;42705;50.326;18.772;2023-04-15T00:51:41;9.40;;;5.90;;
56824;SDS011;42705;50.326;18.772;2023-04-15T00:57:04;6.70;;;4.00;;
56824;SDS011;42705;50.326;18.772;2023-04-15T01:02:41;9.90;;;4.90;;
56824;SDS011;42705;50.326;18.772;2023-04-15T01:08:03;10.90;;;4.80;;
56824;SDS011;42705;50.326;18.772;2023-04-15T01:13:25;9.20;;;5.50;;
56824;SDS011;42705;50.326;18.772;2023-04-15T01:18:47;9.40;;;5.00;;
56824;SDS011;42705;50.326;18.772;2023-04-15T01:24:11;9.00;;;4.90;;
56824;SDS011;42705;50.326;18.772;2023-04-15T01:34:57;7.80;;;4.20;;
56824;SDS011;42705;50.326;18.772;2023-04-15T01:40:19;6.40;;;3.50;;
56824;SDS011;42705;50.326;18.772;2023-04-15T01:45:41;6.20;;;3.10;;
56824;SDS011;42705;50.326;18.772;2023-04-15T01:51:03;3.40;;;2.00;;
56824;SDS011;42705;50.326;18.772;2023-04-15T01:56:26;6.00;;;2.30;;
56824;SDS011;42705;50.326;18.772;2023-04-15T02:01:48;3.70;;;2.10;;
56824;SDS011;42705;50.326;18.772;2023-04-15T02:07:10;5.40;;;2.50;;
56824;SDS011;42705;50.326;18.772;2023-04-15T02:12:32;2.70;;;1.80;;
56824;SDS011;42705;50.326;18.772;2023-04-15T02:17:53;3.30;;;1.90;;
56824;SDS011;42705;50.326;18.772;2023-04-15T02:23:16;4.30;;;2.00;;
56824;SDS011;42705;50.326;18.772;2023-04-15T02:28:38;3.90;;;2.30;;
56824;SDS011;42705;50.326;18.772;2023-04-15T02:34:01;4.90;;;2.50;;
56824;SDS011;42705;50.326;18.772;2023-04-15T02:39:25;5.80;;;2.10;;
56824;SDS011;42705;50.326;18.772;2023-04-15T02:56:53;5.20;;;2.60;;
56824;SDS011;42705;50.326;18.772;2023-04-15T03:02:16;4.80;;;2.70;;
56824;SDS011;42705;50.326;18.772;2023-04-15T03:07:38;5.30;;;3.10;;
56824;SDS011;42705;50.326;18.772;2023-04-15T03:13:03;7.50;;;3.70;;
56824;SDS011;42705;50.326;18.772;2023-04-15T03:18:26;7.00;;;4.20;;
56824;SDS011;42705;50.326;18.772;2023-04-15T03:23:49;7.80;;;4.10;;
56824;SDS011;42705;50.326;18.772;2023-04-15T03:29:12;8.60;;;5.30;;
56824;SDS011;42705;50.326;18.772;2023-04-15T03:34:41;10.60;;;5.80;;
56824;SDS011;42705;50.326;18.772;2023-04-15T03:40:03;10.10;;;5.20;;
56824;SDS011;42705;50.326;18.772;2023-04-15T03:45:25;11.60;;;6.00;;
56824;SDS011;42705;50.326;18.772;2023-04-15T03:50:47;11.20;;;5.90;;
56824;SDS011;42705;50.326;18.772;2023-04-15T03:56:09;13.20;;;6.60;;
56824;SDS011;42705;50.326;18.772;2023-04-15T04:01:31;14.50;;;7.50;;
56824;SDS011;42705;50.326;18.772;2023-04-15T04:06:52;12.30;;;6.70;;
56824;SDS011;42705;50.326;18.772;2023-04-15T04:12:14;13.70;;;8.20;;
56824;SDS011;42705;50.326;18.772;2023-04-15T04:17:36;11.60;;;7.10;;
56824;SDS011;42705;50.326;18.772;2023-04-15T04:22:58;10.20;;;5.40;;
56824;SDS011;42705;50.326;18.772;2023-04-15T04:28:21;10.30;;;6.90;;
56824;SDS011;42705;50.326;18.772;2023-04-15T04:33:43;12.80;;;8.00;;
56824;SDS011;42705;50.326;18.772;2023-04-15T04:39:05;18.00;;;9.10;;
56824;SDS011;42705;50.326;18.772;2023-04-15T04:44:28;17.40;;;9.70;;
56824;SDS011;42705;50.326;18.772;2023-04-15T04:49:50;14.50;;;8.80;;
56824;SDS011;42705;50.326;18.772;2023-04-15T04:55:12;17.10;;;9.30;;
56824;SDS011;42705;50.326;18.772;2023-04-15T05:00:34;14.80;;;8.30;;
56824;SDS011;42705;50.326;18.772;2023-04-15T05:05:55;16.40;;;9.50;;
56824;SDS011;42705;50.326;18.772;2023-04-15T05:11:17;23.20;;;11.40;;
56824;SDS011;42705;50.326;18.772;2023-04-15T05:16:39;22.10;;;11.00;;
56824;SDS011;42705;50.326;18.772;2023-04-15T05:22:02;15.80;;;9.70;;
56824;SDS011;42705;50.326;18.772;2023-04-15T05:27:23;19.80;;;9.50;;
56824;SDS011;42705;50.326;18.772;2023-04-15T05:32:46;17.70;;;10.40;;
56824;SDS011;42705;50.326;18.772;2023-04-15T05:38:08;17.80;;;9.80;;
56824;SDS011;42705;50.326;18.772;2023-04-15T05:43:30;17.00;;;10.50;;
56824;SDS011;42705;50.326;18.772;2023-04-15T05:48:52;21.10;;;11.50;;
56824;SDS011;42705;50.326;18.772;2023-04-15T05:54:14;17.90;;;10.30;;
56824;SDS011;42705;50.326;18.772;2023-04-15T05:59:36;22.50;;;12.10;;
56824;SDS011;42705;50.326;18.772;2023-04-15T06:04:59;19.90;;;12.50;;
56824;SDS011;42705;50.326;18.772;2023-04-15T06:10:21;29.50;;;13.90;;
56824;SDS011;42705;50.326;18.772;2023-04-15T06:15:43;23.10;;;13.70;;
56824;SDS011;42705;50.326;18.772;2023-04-15T06:21:05;18.70;;;11.00;;
56824;SDS011;42705;50.326;18.772;2023-04-15T06:26:27;18.40;;;11.40;;
56824;SDS011;42705;50.326;18.772;2023-04-15T06:31:49;17.20;;;10.80;;
56824;SDS011;42705;50.326;18.772;2023-04-15T06:37:11;14.90;;;9.70;;
56824;SDS011;42705;50.326;18.772;2023-04-15T06:42:36;10.80;;;6.30;;
56824;SDS011;42705;50.326;18.772;2023-04-15T06:47:58;9.70;;;5.90;;
56824;SDS011;42705;50.326;18.772;2023-04-15T06:53:20;9.70;;;6.10;;
56824;SDS011;42705;50.326;18.772;2023-04-15T06:58:42;8.50;;;5.20;;
56824;SDS011;42705;50.326;18.772;2023-04-15T07:04:04;8.10;;;5.40;;
56824;SDS011;42705;50.326;18.772;2023-04-15T07:09:26;9.80;;;6.20;;
56824;SDS011;42705;50.326;18.772;2023-04-15T07:14:49;6.20;;;4.50;;
56824;SDS011;42705;50.326;18.772;2023-04-15T07:20:12;7.70;;;5.00;;
56824;SDS011;42705;50.326;18.772;2023-04-15T07:25:34;9.90;;;7.20;;
56824;SDS011;42705;50.326;18.772;2023-04-15T07:30:56;16.20;;;5.80;;
56824;SDS011;42705;50.326;18.772;2023-04-15T07:36:18;8.20;;;5.10;;
56824;SDS011;42705;50.326;18.772;2023-04-15T07:41:41;7.10;;;4.90;;
56824;SDS011;42705;50.326;18.772;2023-04-15T07:47:03;6.90;;;4.60;;
56824;SDS011;42705;50.326;18.772;2023-04-15T07:52:25;7.40;;;4.50;;
56824;SDS011;42705;50.326;18.772;2023-04-15T07:57:47;7.60;;;4.10;;
56824;SDS011;42705;50.326;18.772;2023-04-15T08:03:11;8.10;;;4.30;;
56824;SDS011;42705;50.326;18.772;2023-04-15T08:08:33;6.60;;;4.20;;
56824;SDS011;42705;50.326;18.772;2023-04-15T08:13:55;5.40;;;3.20;;
56824;SDS011;42705;50.326;18.772;2023-04-15T08:19:17;5.00;;;2.90;;
56824;SDS011;42705;50.326;18.772;2023-04-15T08:24:39;5.40;;;2.70;;
56824;SDS011;42705;50.326;18.772;2023-04-15T08:30:01;7.50;;;3.10;;
56824;SDS011;42705;50.326;18.772;2023-04-15T08:35:25;5.30;;;2.80;;
56824;SDS011;42705;50.326;18.772;2023-04-15T08:40:47;5.20;;;3.10;;
56824;SDS011;42705;50.326;18.772;2023-04-15T08:46:09;5.10;;;3.10;;
56824;SDS011;42705;50.326;18.772;2023-04-15T08:51:33;5.30;;;3.50;;
56824;SDS011;42705;50.326;18.772;2023-04-15T08:56:56;4.00;;;2.40;;
56824;SDS011;42705;50.326;18.772;2023-04-15T09:02:19;4.80;;;2.90;;
56824;SDS011;42705;50.326;18.772;2023-04-15T09:07:42;3.80;;;2.30;;
56824;SDS011;42705;50.326;18.772;2023-04-15T09:13:04;4.80;;;2.50;;
56824;SDS011;42705;50.326;18.772;2023-04-15T09:18:29;4.70;;;2.80;;
56824;SDS011;42705;50.326;18.772;2023-04-15T09:23:56;3.80;;;2.20;;
56824;SDS011;42705;50.326;18.772;2023-04-15T09:29:23;2.70;;;1.50;;
56824;SDS011;42705;50.326;18.772;2023-04-15T09:34:48;4.00;;;1.60;;
56824;SDS011;42705;50.326;18.772;2023-04-15T09:40:10;1.50;;;1.30;;
56824;SDS011;42705;50.326;18.772;2023-04-15T09:45:33;2.60;;;1.50;;
56824;SDS011;42705;50.326;18.772;2023-04-15T09:50:57;1.80;;;1.30;;
56824;SDS011;42705;50.326;18.772;2023-04-15T09:56:21;2.60;;;1.90;;
56824;SDS011;42705;50.326;18.772;2023-04-15T10:01:43;3.60;;;1.60;;
56824;SDS011;42705;50.326;18.772;2023-04-15T10:07:07;2.40;;;1.60;;
56824;SDS011;42705;50.326;18.772;2023-04-15T10:12:31;3.30;;;1.50;;
56824;SDS011;42705;50.326;18.772;2023-04-15T10:17:55;3.70;;;1.30;;
56824;SDS011;42705;50.326;18.772;2023-04-15T10:23:19;2.90;;;1.80;;
56824;SDS011;42705;50.326;18.772;2023-04-15T10:28:45;3.20;;;1.60;;
56824;SDS011;42705;50.326;18.772;2023-04-15T10:34:10;2.90;;;1.40;;
56824;SDS011;42705;50.326;18.772;2023-04-15T10:44:55;2.30;;;1.60;;
56824;SDS011;42705;50.326;18.772;2023-04-15T10:50:17;3.70;;;1.60;;
56824;SDS011;42705;50.326;18.772;2023-04-15T10:55:39;2.20;;;1.50;;
56824;SDS011;42705;50.326;18.772;2023-04-15T11:01:02;2.30;;;1.50;;
56824;SDS011;42705;50.326;18.772;2023-04-15T11:06:35;1.60;;;1.40;;
56824;SDS011;42705;50.326;18.772;2023-04-15T11:12:06;2.10;;;1.60;;
56824;SDS011;42705;50.326;18.772;2023-04-15T11:17:30;1.90;;;1.60;;
56824;SDS011;42705;50.326;18.772;2023-04-15T11:22:52;1.70;;;1.40;;
56824;SDS011;42705;50.326;18.772;2023-04-15T11:28:19;3.20;;;1.50;;
56824;SDS011;42705;50.326;18.772;2023-04-15T11:39:16;1.60;;;1.50;;
56824;SDS011;42705;50.326;18.772;2023-04-15T11:44:38;2.30;;;1.60;;
56824;SDS011;42705;50.326;18.772;2023-04-15T11:55:55;3.00;;;1.90;;
56824;SDS011;42705;50.326;18.772;2023-04-15T12:01:17;3.20;;;2.20;;
56824;SDS011;42705;50.326;18.772;2023-04-15T12:06:39;4.30;;;2.80;;
56824;SDS011;42705;50.326;18.772;2023-04-15T12:12:01;3.40;;;2.20;;
56824;SDS011;42705;50.326;18.772;2023-04-15T12:17:24;6.20;;;4.10;;
56824;SDS011;42705;50.326;18.772;2023-04-15T12:22:46;5.40;;;2.90;;
56824;SDS011;42705;50.326;18.772;2023-04-15T12:28:10;4.30;;;2.60;;
56824;SDS011;42705;50.326;18.772;2023-04-15T12:33:33;3.30;;;2.20;;
56824;SDS011;42705;50.326;18.772;2023-04-15T12:38:55;2.60;;;1.80;;
56824;SDS011;42705;50.326;18.772;2023-04-15T12:44:17;2.60;;;1.90;;
56824;SDS011;42705;50.326;18.772;2023-04-15T12:49:40;3.40;;;2.50;;
56824;SDS011;42705;50.326;18.772;2023-04-15T12:55:02;5.30;;;2.60;;
56824;SDS011;42705;50.326;18.772;2023-04-15T13:00:24;4.30;;;2.40;;
56824;SDS011;42705;50.326;18.772;2023-04-15T13:05:45;4.10;;;1.90;;
56824;SDS011;42705;50.326;18.772;2023-04-15T13:11:07;5.20;;;2.90;;
56824;SDS011;42705;50.326;18.772;2023-04-15T13:16:29;2.50;;;2.20;;
56824;SDS011;42705;50.326;18.772;2023-04-15T13:21:52;1.80;;;1.60;;
56824;SDS011;42705;50.326;18.772;2023-04-15T13:27:14;2.00;;;1.70;;
56824;SDS011;42705;50.326;18.772;2023-04-15T13:32:36;2.50;;;2.00;;
56824;SDS011;42705;50.326;18.772;2023-04-15T13:37:57;4.20;;;2.10;;
56824;SDS011;42705;50.326;18.772;2023-04-15T13:43:19;2.80;;;2.10;;
56824;SDS011;42705;50.326;18.772;2023-04-15T13:48:42;3.00;;;2.10;;
56824;SDS011;42705;50.326;18.772;2023-04-15T13:54:03;3.60;;;2.30;;
56824;SDS011;42705;50.326;18.772;2023-04-15T13:59:25;3.30;;;2.70;;
56824;SDS011;42705;50.326;18.772;2023-04-15T14:04:47;3.70;;;3.00;;
56824;SDS011;42705;50.326;18.772;2023-04-15T14:10:09;5.40;;;4.00;;
56824;SDS011;42705;50.326;18.772;2023-04-15T14:15:31;6.10;;;4.20;;
56824;SDS011;42705;50.326;18.772;2023-04-15T14:26:15;4.40;;;3.50;;
56824;SDS011;42705;50.326;18.772;2023-04-15T14:31:37;7.80;;;4.60;;
56824;SDS011;42705;50.326;18.772;2023-04-15T14:42:21;6.70;;;4.00;;
56824;SDS011;42705;50.326;18.772;2023-04-15T14:47:43;5.80;;;4.40;;
56824;SDS011;42705;50.326;18.772;2023-04-15T14:53:05;8.30;;;5.00;;
56824;SDS011;42705;50.326;18.772;2023-04-15T14:58:28;7.70;;;4.80;;
56824;SDS011;42705;50.326;18.772;2023-04-15T15:03:50;8.00;;;4.60;;
56824;SDS011;42705;50.326;18.772;2023-04-15T15:09:12;10.40;;;5.60;;
56824;SDS011;42705;50.326;18.772;2023-04-15T15:14:33;10.30;;;5.80;;
56824;SDS011;42705;50.326;18.772;2023-04-15T15:19:55;8.90;;;5.10;;
56824;SDS011;42705;50.326;18.772;2023-04-15T15:25:17;7.40;;;4.80;;
56824;SDS011;42705;50.326;18.772;2023-04-15T15:30:40;7.60;;;4.60;;
56824;SDS011;42705;50.326;18.772;2023-04-15T15:36:03;7.80;;;5.10;;
56824;SDS011;42705;50.326;18.772;2023-04-15T15:41:26;7.70;;;5.00;;
56824;SDS011;42705;50.326;18.772;2023-04-15T15:46:48;9.50;;;4.90;;
56824;SDS011;42705;50.326;18.772;2023-04-15T15:52:18;5.00;;;3.70;;
56824;SDS011;42705;50.326;18.772;2023-04-15T15:57:41;31.50;;;12.70;;
56824;SDS011;42705;50.326;18.772;2023-04-15T16:03:02;18.20;;;9.20;;
56824;SDS011;42705;50.326;18.772;2023-04-15T16:08:25;18.30;;;10.00;;
56824;SDS011;42705;50.326;18.772;2023-04-15T16:13:50;18.00;;;9.30;;
56824;SDS011;42705;50.326;18.772;2023-04-15T16:19:12;20.50;;;10.90;;
56824;SDS011;42705;50.326;18.772;2023-04-15T16:24:34;14.60;;;8.40;;
56824;SDS011;42705;50.326;18.772;2023-04-15T16:29:56;11.20;;;7.10;;
56824;SDS011;42705;50.326;18.772;2023-04-15T16:35:18;8.30;;;5.50;;
56824;SDS011;42705;50.326;18.772;2023-04-15T16:40:41;10.80;;;6.70;;
56824;SDS011;42705;50.326;18.772;2023-04-15T16:46:03;11.70;;;6.20;;
56824;SDS011;42705;50.326;18.772;2023-04-15T16:51:27;8.70;;;5.70;;
56824;SDS011;42705;50.326;18.772;2023-04-15T16:56:52;9.50;;;5.70;;
56824;SDS011;42705;50.326;18.772;2023-04-15T17:02:13;8.50;;;5.50;;
56824;SDS011;42705;50.326;18.772;2023-04-15T17:07:36;7.30;;;4.80;;
56824;SDS011;42705;50.326;18.772;2023-04-15T17:12:58;8.40;;;5.30;;
56824;SDS011;42705;50.326;18.772;2023-04-15T17:18:20;7.60;;;5.40;;
56824;SDS011;42705;50.326;18.772;2023-04-15T17:23:42;6.60;;;4.80;;
56824;SDS011;42705;50.326;18.772;2023-04-15T17:29:05;9.30;;;5.10;;
56824;SDS011;42705;50.326;18.772;2023-04-15T17:34:29;7.70;;;4.90;;
56824;SDS011;42705;50.326;18.772;2023-04-15T17:39:51;8.30;;;5.60;;
56824;SDS011;42705;50.326;18.772;2023-04-15T17:45:15;10.90;;;6.30;;
56824;SDS011;42705;50.326;18.772;2023-04-15T17:50:37;16.80;;;9.20;;
56824;SDS011;42705;50.326;18.772;2023-04-15T17:55:59;16.20;;;7.70;;
56824;SDS011;42705;50.326;18.772;2023-04-15T18:01:22;12.00;;;7.30;;
56824;SDS011;42705;50.326;18.772;2023-04-15T18:06:44;14.00;;;7.20;;
56824;SDS011;42705;50.326;18.772;2023-04-15T18:12:06;13.50;;;7.70;;
56824;SDS011;42705;50.326;18.772;2023-04-15T18:17:30;11.70;;;6.90;;
56824;SDS011;42705;50.326;18.772;2023-04-15T18:22:52;10.10;;;5.80;;
56824;SDS011;42705;50.326;18.772;2023-04-15T18:28:14;10.90;;;6.70;;
56824;SDS011;42705;50.326;18.772;2023-04-15T18:33:40;8.80;;;6.00;;
56824;SDS011;42705;50.326;18.772;2023-04-15T18:39:03;17.40;;;9.00;;
56824;SDS011;42705;50.326;18.772;2023-04-15T18:44:25;17.70;;;8.60;;
56824;SDS011;42705;50.326;18.772;2023-04-15T18:49:49;11.90;;;7.20;;
56824;SDS011;42705;50.326;18.772;2023-04-15T18:55:11;9.90;;;6.70;;
56824;SDS011;42705;50.326;18.772;2023-04-15T19:00:33;10.90;;;6.30;;
56824;SDS011;42705;50.326;18.772;2023-04-15T19:11:19;10.30;;;6.50;;
56824;SDS011;42705;50.326;18.772;2023-04-15T19:16:41;9.20;;;6.40;;
56824;SDS011;42705;50.326;18.772;2023-04-15T19:22:04;12.20;;;7.30;;
56824;SDS011;42705;50.326;18.772;2023-04-15T19:27:26;8.90;;;6.20;;
56824;SDS011;42705;50.326;18.772;2023-04-15T19:32:49;8.90;;;5.60;;
56824;SDS011;42705;50.326;18.772;2023-04-15T19:38:12;9.40;;;5.50;;
56824;SDS011;42705;50.326;18.772;2023-04-15T19:43:34;11.00;;;6.90;;
56824;SDS011;42705;50.326;18.772;2023-04-15T19:48:56;11.20;;;6.30;;
56824;SDS011;42705;50.326;18.772;2023-04-15T19:54:18;10.70;;;6.70;;
56824;SDS011;42705;50.326;18.772;2023-04-15T19:59:40;9.70;;;6.10;;
56824;SDS011;42705;50.326;18.772;2023-04-15T20:05:04;10.10;;;5.30;;
56824;SDS011;42705;50.326;18.772;2023-04-15T20:10:30;8.20;;;5.20;;
56824;SDS011;42705;50.326;18.772;2023-04-15T20:15:52;9.90;;;5.50;;
56824;SDS011;42705;50.326;18.772;2023-04-15T20:21:15;10.20;;;6.80;;
56824;SDS011;42705;50.326;18.772;2023-04-15T20:26:37;15.30;;;8.50;;
56824;SDS011;42705;50.326;18.772;2023-04-15T20:31:59;13.00;;;7.30;;
56824;SDS011;42705;50.326;18.772;2023-04-15T20:37:21;12.50;;;7.30;;
56824;SDS011;42705;50.326;18.772;2023-04-15T20:42:43;10.80;;;6.80;;
56824;SDS011;42705;50.326;18.772;2023-04-15T20:53:28;11.10;;;6.20;;
56824;SDS011;42705;50.326;18.772;2023-04-15T20:58:49;10.90;;;7.10;;
56824;SDS011;42705;50.326;18.772;2023-04-15T21:04:11;12.60;;;6.20;;
56824;SDS011;42705;50.326;18.772;2023-04-15T21:09:35;10.60;;;6.70;;
56824;SDS011;42705;50.326;18.772;2023-04-15T21:14:58;11.70;;;6.90;;
56824;SDS011;42705;50.326;18.772;2023-04-15T21:20:20;11.80;;;7.80;;
56824;SDS011;42705;50.326;18.772;2023-04-15T21:25:44;12.80;;;7.20;;
56824;SDS011;42705;50.326;18.772;2023-04-15T21:31:07;12.10;;;7.40;;
56824;SDS011;42705;50.326;18.772;2023-04-15T21:36:29;13.50;;;7.60;;
56824;SDS011;42705;50.326;18.772;2023-04-15T21:41:52;9.80;;;6.30;;
56824;SDS011;42705;50.326;18.772;2023-04-15T21:47:13;9.30;;;5.80;;
56824;SDS011;42705;50.326;18.772;2023-04-15T21:52:35;8.80;;;6.60;;
56824;SDS011;42705;50.326;18.772;2023-04-15T21:57:57;11.00;;;6.80;;
56824;SDS011;42705;50.326;18.772;2023-04-15T22:03:19;8.30;;;5.20;;
56824;SDS011;42705;50.326;18.772;2023-04-15T22:08:41;8.20;;;5.40;;
56824;SDS011;42705;50.326;18.772;2023-04-15T22:14:03;8.20;;;5.90;;
56824;SDS011;42705;50.326;18.772;2023-04-15T22:19:26;12.90;;;8.00;;
56824;SDS011;42705;50.326;18.772;2023-04-15T22:24:48;22.70;;;12.70;;
56824;SDS011;42705;50.326;18.772;2023-04-15T22:30:10;24.20;;;13.90;;
56824;SDS011;42705;50.326;18.772;2023-04-15T22:35:32;26.00;;;15.60;;
56824;SDS011;42705;50.326;18.772;2023-04-15T22:40:55;27.10;;;15.30;;
56824;SDS011;42705;50.326;18.772;2023-04-15T22:46:17;28.40;;;16.70;;
56824;SDS011;42705;50.326;18.772;2023-04-15T22:51:39;27.00;;;15.60;;
56824;SDS011;42705;50.326;18.772;2023-04-15T22:57:01;30.50;;;16.60;;
56824;SDS011;42705;50.326;18.772;2023-04-15T23:02:23;25.20;;;15.60;;
56824;SDS011;42705;50.326;18.772;2023-04-15T23:07:45;28.20;;;16.80;;
56824;SDS011;42705;50.326;18.772;2023-04-15T23:18:32;23.70;;;13.80;;
56824;SDS011;42705;50.326;18.772;2023-04-15T23:23:54;22.80;;;15.70;;
56824;SDS011;42705;50.326;18.772;2023-04-15T23:29:16;21.70;;;14.10;;
56824;SDS011;42705;50.326;18.772;2023-04-15T23:34:38;24.40;;;15.70;;
56824;SDS011;42705;50.326;18.772;2023-04-15T23:40:00;22.30;;;14.90;;
56824;SDS011;42705;50.326;18.772;2023-04-15T23:45:22;22.30;;;13.80;;
56824;SDS011;42705;50.326;18.772;2023-04-15T23:50:44;18.80;;;12.00;;
56824;SDS011;42705;50.326;18.772;2023-04-15T23:56:06;17.70;;;12.30;;
